sensor_id;sensor_type;location;lat;lon;timestamp;P1;durP1;ratioP1;P2;durP2;ratioP2
40955;SDS011;26687;48.254;11.454;2023-08-12T00:01:31;3.87;;;3.47;;
40955;SDS011;26687;48.254;11.454;2023-08-12T00:04:31;4.13;;;3.20;;
40955;SDS011;26687;48.254;11.454;2023-08-12T00:07:31;4.17;;;3.17;;
40955;SDS011;26687;48.254;11.454;2023-08-12T00:10:32;4.03;;;3.70;;
40955;SDS011;26687;48.254;11.454;2023-08-12T00:13:32;5.30;;;3.42;;
40955;SDS011;26687;48.254;11.454;2023-08-12T00:16:33;3.47;;;3.17;;
40955;SDS011;26687;48.254;11.454;2023-08-12T00:19:33;3.27;;;2.83;;
40955;SDS011;26687;48.254;11.454;2023-08-12T00:22:33;5.28;;;3.40;;
40955;SDS011;26687;48.254;11.454;2023-08-12T00:25:33;3.93;;;3.53;;
40955;SDS011;26687;48.254;11.454;2023-08-12T00:28:33;3.85;;;3.38;;
40955;SDS011;26687;48.254;11.454;2023-08-12T00:31:34;3.70;;;3.35;;
40955;SDS011;26687;48.254;11.454;2023-08-12T00:34:34;6.28;;;3.47;;
40955;SDS011;26687;48.254;11.454;2023-08-12T00:37:34;4.13;;;3.80;;
40955;SDS011;26687;48.254;11.454;2023-08-12T00:40:34;3.67;;;3.38;;
40955;SDS011;26687;48.254;11.454;2023-08-12T00:43:35;3.90;;;3.28;;
40955;SDS011;26687;48.254;11.454;2023-08-12T00:46:35;4.20;;;3.90;;
40955;SDS011;26687;48.254;11.454;2023-08-12T00:49:36;3.70;;;3.40;;
40955;SDS011;26687;48.254;11.454;2023-08-12T00:52:37;4.15;;;3.53;;
40955;SDS011;26687;48.254;11.454;2023-08-12T00:55:38;3.75;;;3.35;;
40955;SDS011;26687;48.254;11.454;2023-08-12T00:58:39;6.30;;;3.70;;
40955;SDS011;26687;48.254;11.454;2023-08-12T01:01:40;4.15;;;3.80;;
40955;SDS011;26687;48.254;11.454;2023-08-12T01:04:41;3.60;;;3.30;;
40955;SDS011;26687;48.254;11.454;2023-08-12T01:07:42;3.70;;;3.40;;
40955;SDS011;26687;48.254;11.454;2023-08-12T01:10:44;4.80;;;3.50;;
40955;SDS011;26687;48.254;11.454;2023-08-12T01:16:57;3.45;;;3.15;;
40955;SDS011;26687;48.254;11.454;2023-08-12T01:19:59;4.13;;;3.78;;
40955;SDS011;26687;48.254;11.454;2023-08-12T01:23:08;4.10;;;3.70;;
40955;SDS011;26687;48.254;11.454;2023-08-12T01:26:08;4.18;;;3.75;;
40955;SDS011;26687;48.254;11.454;2023-08-12T01:29:08;4.20;;;3.47;;
40955;SDS011;26687;48.254;11.454;2023-08-12T01:32:12;4.53;;;4.15;;
40955;SDS011;26687;48.254;11.454;2023-08-12T01:35:19;4.22;;;3.58;;
40955;SDS011;26687;48.254;11.454;2023-08-12T01:38:20;5.15;;;3.45;;
40955;SDS011;26687;48.254;11.454;2023-08-12T01:41:22;4.00;;;3.60;;
40955;SDS011;26687;48.254;11.454;2023-08-12T01:44:23;4.30;;;3.90;;
40955;SDS011;26687;48.254;11.454;2023-08-12T01:47:23;5.05;;;3.65;;
40955;SDS011;26687;48.254;11.454;2023-08-12T01:50:23;4.07;;;3.77;;
40955;SDS011;26687;48.254;11.454;2023-08-12T01:53:24;4.55;;;4.15;;
40955;SDS011;26687;48.254;11.454;2023-08-12T01:56:24;4.40;;;4.00;;
40955;SDS011;26687;48.254;11.454;2023-08-12T01:59:24;4.30;;;3.90;;
40955;SDS011;26687;48.254;11.454;2023-08-12T02:02:24;4.73;;;3.80;;
40955;SDS011;26687;48.254;11.454;2023-08-12T02:05:24;4.90;;;4.50;;
40955;SDS011;26687;48.254;11.454;2023-08-12T02:08:25;5.23;;;4.63;;
40955;SDS011;26687;48.254;11.454;2023-08-12T02:11:25;4.70;;;4.30;;
40955;SDS011;26687;48.254;11.454;2023-08-12T02:14:25;4.95;;;4.55;;
40955;SDS011;26687;48.254;11.454;2023-08-12T02:17:25;4.03;;;3.70;;
40955;SDS011;26687;48.254;11.454;2023-08-12T02:20:25;4.07;;;3.75;;
40955;SDS011;26687;48.254;11.454;2023-08-12T02:23:26;5.20;;;4.70;;
40955;SDS011;26687;48.254;11.454;2023-08-12T02:26:26;4.33;;;3.93;;
40955;SDS011;26687;48.254;11.454;2023-08-12T02:29:26;6.32;;;4.57;;
40955;SDS011;26687;48.254;11.454;2023-08-12T02:32:26;4.13;;;3.80;;
40955;SDS011;26687;48.254;11.454;2023-08-12T02:35:26;4.40;;;4.10;;
40955;SDS011;26687;48.254;11.454;2023-08-12T02:38:27;4.63;;;4.32;;
40955;SDS011;26687;48.254;11.454;2023-08-12T02:41:27;4.20;;;3.90;;
40955;SDS011;26687;48.254;11.454;2023-08-12T02:44:28;4.47;;;4.07;;
40955;SDS011;26687;48.254;11.454;2023-08-12T02:47:28;5.97;;;4.40;;
40955;SDS011;26687;48.254;11.454;2023-08-12T02:50:28;4.20;;;3.90;;
40955;SDS011;26687;48.254;11.454;2023-08-12T02:53:28;4.22;;;3.88;;
40955;SDS011;26687;48.254;11.454;2023-08-12T02:56:28;5.78;;;4.10;;
40955;SDS011;26687;48.254;11.454;2023-08-12T02:59:28;4.20;;;3.90;;
40955;SDS011;26687;48.254;11.454;2023-08-12T03:02:30;5.20;;;4.70;;
40955;SDS011;26687;48.254;11.454;2023-08-12T03:05:30;4.47;;;4.18;;
40955;SDS011;26687;48.254;11.454;2023-08-12T03:08:30;4.63;;;4.22;;
40955;SDS011;26687;48.254;11.454;2023-08-12T03:11:30;4.90;;;4.18;;
40955;SDS011;26687;48.254;11.454;2023-08-12T03:14:31;4.10;;;3.80;;
40955;SDS011;26687;48.254;11.454;2023-08-12T03:17:31;5.03;;;4.03;;
40955;SDS011;26687;48.254;11.454;2023-08-12T03:20:31;4.43;;;4.13;;
40955;SDS011;26687;48.254;11.454;2023-08-12T03:23:31;4.28;;;3.90;;
40955;SDS011;26687;48.254;11.454;2023-08-12T03:26:32;5.10;;;4.60;;
40955;SDS011;26687;48.254;11.454;2023-08-12T03:29:32;5.55;;;4.20;;
40955;SDS011;26687;48.254;11.454;2023-08-12T03:32:32;4.32;;;4.00;;
40955;SDS011;26687;48.254;11.454;2023-08-12T03:35:33;5.15;;;4.43;;
40955;SDS011;26687;48.254;11.454;2023-08-12T03:38:33;4.70;;;4.30;;
40955;SDS011;26687;48.254;11.454;2023-08-12T03:41:35;4.50;;;4.03;;
40955;SDS011;26687;48.254;11.454;2023-08-12T03:44:36;4.80;;;4.20;;
40955;SDS011;26687;48.254;11.454;2023-08-12T03:47:36;4.22;;;3.92;;
40955;SDS011;26687;48.254;11.454;2023-08-12T03:50:37;4.05;;;3.75;;
40955;SDS011;26687;48.254;11.454;2023-08-12T03:53:37;5.03;;;4.40;;
40955;SDS011;26687;48.254;11.454;2023-08-12T03:56:37;4.38;;;3.88;;
40955;SDS011;26687;48.254;11.454;2023-08-12T03:59:37;4.20;;;3.90;;
40955;SDS011;26687;48.254;11.454;2023-08-12T04:02:37;4.07;;;3.65;;
40955;SDS011;26687;48.254;11.454;2023-08-12T04:05:38;4.43;;;4.10;;
40955;SDS011;26687;48.254;11.454;2023-08-12T04:08:46;4.70;;;4.30;;
40955;SDS011;26687;48.254;11.454;2023-08-12T04:11:46;4.40;;;4.00;;
40955;SDS011;26687;48.254;11.454;2023-08-12T04:14:46;3.95;;;3.65;;
40955;SDS011;26687;48.254;11.454;2023-08-12T04:17:47;4.28;;;3.97;;
40955;SDS011;26687;48.254;11.454;2023-08-12T04:20:48;4.17;;;3.77;;
40955;SDS011;26687;48.254;11.454;2023-08-12T04:23:49;4.30;;;3.90;;
40955;SDS011;26687;48.254;11.454;2023-08-12T04:26:49;4.22;;;3.83;;
40955;SDS011;26687;48.254;11.454;2023-08-12T04:29:49;4.20;;;3.90;;
40955;SDS011;26687;48.254;11.454;2023-08-12T04:32:49;4.40;;;4.07;;
40955;SDS011;26687;48.254;11.454;2023-08-12T04:35:49;4.25;;;3.95;;
40955;SDS011;26687;48.254;11.454;2023-08-12T04:38:50;4.13;;;3.72;;
40955;SDS011;26687;48.254;11.454;2023-08-12T04:41:50;5.10;;;4.70;;
40955;SDS011;26687;48.254;11.454;2023-08-12T04:44:51;4.53;;;4.13;;
40955;SDS011;26687;48.254;11.454;2023-08-12T04:47:51;4.78;;;4.40;;
40955;SDS011;26687;48.254;11.454;2023-08-12T04:50:51;4.72;;;4.03;;
40955;SDS011;26687;48.254;11.454;2023-08-12T04:53:51;4.70;;;4.30;;
40955;SDS011;26687;48.254;11.454;2023-08-12T04:56:52;4.88;;;4.47;;
40955;SDS011;26687;48.254;11.454;2023-08-12T04:59:53;5.00;;;4.00;;
40955;SDS011;26687;48.254;11.454;2023-08-12T05:02:53;5.03;;;4.63;;
40955;SDS011;26687;48.254;11.454;2023-08-12T05:05:53;5.10;;;4.67;;
40955;SDS011;26687;48.254;11.454;2023-08-12T05:08:53;4.90;;;4.50;;
40955;SDS011;26687;48.254;11.454;2023-08-12T05:11:54;4.55;;;4.25;;
40955;SDS011;26687;48.254;11.454;2023-08-12T05:14:54;4.95;;;4.55;;
40955;SDS011;26687;48.254;11.454;2023-08-12T05:17:54;5.23;;;4.83;;
40955;SDS011;26687;48.254;11.454;2023-08-12T05:20:54;6.25;;;4.97;;
40955;SDS011;26687;48.254;11.454;2023-08-12T05:23:54;5.00;;;4.60;;
40955;SDS011;26687;48.254;11.454;2023-08-12T05:26:54;5.30;;;4.80;;
40955;SDS011;26687;48.254;11.454;2023-08-12T05:29:55;5.50;;;5.00;;
40955;SDS011;26687;48.254;11.454;2023-08-12T05:32:55;5.20;;;4.80;;
40955;SDS011;26687;48.254;11.454;2023-08-12T05:35:55;8.48;;;5.00;;
40955;SDS011;26687;48.254;11.454;2023-08-12T05:38:55;5.40;;;4.50;;
40955;SDS011;26687;48.254;11.454;2023-08-12T05:41:55;5.53;;;4.97;;
40955;SDS011;26687;48.254;11.454;2023-08-12T05:44:55;5.18;;;4.68;;
40955;SDS011;26687;48.254;11.454;2023-08-12T05:47:56;5.28;;;4.53;;
40955;SDS011;26687;48.254;11.454;2023-08-12T05:50:56;5.23;;;4.83;;
40955;SDS011;26687;48.254;11.454;2023-08-12T05:53:56;5.53;;;4.97;;
40955;SDS011;26687;48.254;11.454;2023-08-12T05:56:57;5.47;;;4.97;;
40955;SDS011;26687;48.254;11.454;2023-08-12T05:59:57;5.90;;;5.00;;
40955;SDS011;26687;48.254;11.454;2023-08-12T06:02:58;5.37;;;4.90;;
40955;SDS011;26687;48.254;11.454;2023-08-12T06:05:58;5.57;;;5.07;;
40955;SDS011;26687;48.254;11.454;2023-08-12T06:08:58;5.05;;;4.65;;
40955;SDS011;26687;48.254;11.454;2023-08-12T06:11:58;5.10;;;4.63;;
40955;SDS011;26687;48.254;11.454;2023-08-12T06:14:58;5.82;;;5.32;;
40955;SDS011;26687;48.254;11.454;2023-08-12T06:17:59;6.83;;;5.33;;
40955;SDS011;26687;48.254;11.454;2023-08-12T06:20:59;5.32;;;4.82;;
40955;SDS011;26687;48.254;11.454;2023-08-12T06:24:00;5.57;;;5.15;;
40955;SDS011;26687;48.254;11.454;2023-08-12T06:27:00;5.38;;;4.88;;
40955;SDS011;26687;48.254;11.454;2023-08-12T06:30:00;5.00;;;4.60;;
40955;SDS011;26687;48.254;11.454;2023-08-12T06:33:00;5.88;;;4.57;;
40955;SDS011;26687;48.254;11.454;2023-08-12T06:36:00;4.90;;;4.18;;
40955;SDS011;26687;48.254;11.454;2023-08-12T06:39:00;5.05;;;4.65;;
40955;SDS011;26687;48.254;11.454;2023-08-12T06:42:01;5.18;;;4.43;;
40955;SDS011;26687;48.254;11.454;2023-08-12T06:45:01;4.83;;;4.33;;
40955;SDS011;26687;48.254;11.454;2023-08-12T06:48:03;5.95;;;4.35;;
40955;SDS011;26687;48.254;11.454;2023-08-12T06:51:04;5.45;;;4.30;;
40955;SDS011;26687;48.254;11.454;2023-08-12T06:54:10;5.30;;;4.40;;
40955;SDS011;26687;48.254;11.454;2023-08-12T06:57:10;4.13;;;3.83;;
40955;SDS011;26687;48.254;11.454;2023-08-12T07:00:11;3.92;;;3.63;;
40955;SDS011;26687;48.254;11.454;2023-08-12T07:03:12;4.53;;;4.13;;
40955;SDS011;26687;48.254;11.454;2023-08-12T07:06:12;4.43;;;4.03;;
40955;SDS011;26687;48.254;11.454;2023-08-12T07:09:12;4.63;;;4.17;;
40955;SDS011;26687;48.254;11.454;2023-08-12T07:12:12;5.23;;;4.73;;
40955;SDS011;26687;48.254;11.454;2023-08-12T07:15:12;4.70;;;3.87;;
40955;SDS011;26687;48.254;11.454;2023-08-12T07:18:13;4.70;;;4.20;;
40955;SDS011;26687;48.254;11.454;2023-08-12T07:21:13;5.20;;;4.80;;
40955;SDS011;26687;48.254;11.454;2023-08-12T07:24:13;5.63;;;3.67;;
40955;SDS011;26687;48.254;11.454;2023-08-12T07:27:13;4.10;;;3.70;;
40955;SDS011;26687;48.254;11.454;2023-08-12T07:30:13;3.90;;;3.50;;
40955;SDS011;26687;48.254;11.454;2023-08-12T07:33:13;3.65;;;3.35;;
40955;SDS011;26687;48.254;11.454;2023-08-12T07:36:14;3.88;;;3.17;;
40955;SDS011;26687;48.254;11.454;2023-08-12T07:39:14;3.78;;;3.47;;
40955;SDS011;26687;48.254;11.454;2023-08-12T07:42:14;5.87;;;3.57;;
40955;SDS011;26687;48.254;11.454;2023-08-12T07:45:14;4.03;;;3.35;;
40955;SDS011;26687;48.254;11.454;2023-08-12T07:48:14;3.80;;;3.05;;
40955;SDS011;26687;48.254;11.454;2023-08-12T07:51:14;4.88;;;3.55;;
40955;SDS011;26687;48.254;11.454;2023-08-12T07:54:15;3.73;;;3.37;;
40955;SDS011;26687;48.254;11.454;2023-08-12T07:57:15;4.93;;;3.17;;
40955;SDS011;26687;48.254;11.454;2023-08-12T08:00:16;3.85;;;3.17;;
40955;SDS011;26687;48.254;11.454;2023-08-12T08:03:16;6.00;;;3.58;;
40955;SDS011;26687;48.254;11.454;2023-08-12T08:06:16;4.38;;;3.08;;
40955;SDS011;26687;48.254;11.454;2023-08-12T08:09:16;3.90;;;2.88;;
40955;SDS011;26687;48.254;11.454;2023-08-12T08:12:17;3.75;;;3.42;;
40955;SDS011;26687;48.254;11.454;2023-08-12T08:15:17;5.70;;;3.80;;
40955;SDS011;26687;48.254;11.454;2023-08-12T08:18:17;3.53;;;3.23;;
40955;SDS011;26687;48.254;11.454;2023-08-12T08:21:17;3.17;;;2.97;;
40955;SDS011;26687;48.254;11.454;2023-08-12T08:24:17;4.32;;;3.20;;
40955;SDS011;26687;48.254;11.454;2023-08-12T08:27:18;5.07;;;3.10;;
40955;SDS011;26687;48.254;11.454;2023-08-12T08:30:18;3.25;;;2.95;;
40955;SDS011;26687;48.254;11.454;2023-08-12T08:33:18;3.25;;;2.95;;
40955;SDS011;26687;48.254;11.454;2023-08-12T08:36:18;3.28;;;2.97;;
40955;SDS011;26687;48.254;11.454;2023-08-12T08:39:18;3.28;;;2.80;;
40955;SDS011;26687;48.254;11.454;2023-08-12T08:42:19;3.40;;;3.10;;
40955;SDS011;26687;48.254;11.454;2023-08-12T08:45:20;5.03;;;3.03;;
40955;SDS011;26687;48.254;11.454;2023-08-12T08:48:21;2.80;;;2.60;;
40955;SDS011;26687;48.254;11.454;2023-08-12T08:51:21;3.40;;;3.03;;
40955;SDS011;26687;48.254;11.454;2023-08-12T08:54:21;4.70;;;2.60;;
40955;SDS011;26687;48.254;11.454;2023-08-12T08:57:21;4.03;;;2.70;;
40955;SDS011;26687;48.254;11.454;2023-08-12T09:00:22;3.10;;;2.90;;
40955;SDS011;26687;48.254;11.454;2023-08-12T09:03:22;3.38;;;2.97;;
40955;SDS011;26687;48.254;11.454;2023-08-12T09:06:24;4.53;;;2.97;;
40955;SDS011;26687;48.254;11.454;2023-08-12T09:09:25;5.00;;;2.87;;
40955;SDS011;26687;48.254;11.454;2023-08-12T09:12:25;3.80;;;2.80;;
40955;SDS011;26687;48.254;11.454;2023-08-12T09:15:26;3.60;;;3.08;;
40955;SDS011;26687;48.254;11.454;2023-08-12T09:18:26;2.80;;;2.60;;
40955;SDS011;26687;48.254;11.454;2023-08-12T09:21:26;3.33;;;3.03;;
40955;SDS011;26687;48.254;11.454;2023-08-12T09:24:26;3.38;;;3.08;;
40955;SDS011;26687;48.254;11.454;2023-08-12T09:27:27;5.50;;;2.75;;
40955;SDS011;26687;48.254;11.454;2023-08-12T09:30:30;2.80;;;2.60;;
40955;SDS011;26687;48.254;11.454;2023-08-12T09:33:38;2.97;;;2.78;;
40955;SDS011;26687;48.254;11.454;2023-08-12T09:36:38;4.15;;;2.95;;
40955;SDS011;26687;48.254;11.454;2023-08-12T09:39:38;3.15;;;2.53;;
40955;SDS011;26687;48.254;11.454;2023-08-12T09:42:44;3.13;;;2.92;;
40955;SDS011;26687;48.254;11.454;2023-08-12T09:45:44;3.38;;;3.08;;
40955;SDS011;26687;48.254;11.454;2023-08-12T09:48:45;3.33;;;3.10;;
40955;SDS011;26687;48.254;11.454;2023-08-12T09:51:45;3.20;;;2.95;;
40955;SDS011;26687;48.254;11.454;2023-08-12T09:54:46;4.00;;;3.22;;
40955;SDS011;26687;48.254;11.454;2023-08-12T09:57:51;2.70;;;2.50;;
40955;SDS011;26687;48.254;11.454;2023-08-12T10:00:54;5.55;;;2.92;;
40955;SDS011;26687;48.254;11.454;2023-08-12T10:03:55;2.80;;;2.60;;
40955;SDS011;26687;48.254;11.454;2023-08-12T10:06:55;3.30;;;3.00;;
40955;SDS011;26687;48.254;11.454;2023-08-12T10:09:56;2.87;;;2.67;;
40955;SDS011;26687;48.254;11.454;2023-08-12T10:12:57;3.17;;;2.85;;
40955;SDS011;26687;48.254;11.454;2023-08-12T10:15:57;3.47;;;3.13;;
40955;SDS011;26687;48.254;11.454;2023-08-12T10:18:58;3.13;;;2.90;;
40955;SDS011;26687;48.254;11.454;2023-08-12T10:21:59;3.25;;;2.95;;
40955;SDS011;26687;48.254;11.454;2023-08-12T10:25:02;3.65;;;3.00;;
40955;SDS011;26687;48.254;11.454;2023-08-12T10:28:02;2.83;;;2.63;;
40955;SDS011;26687;48.254;11.454;2023-08-12T10:31:04;3.10;;;2.80;;
40955;SDS011;26687;48.254;11.454;2023-08-12T10:34:04;3.03;;;2.80;;
40955;SDS011;26687;48.254;11.454;2023-08-12T10:37:05;4.65;;;2.63;;
40955;SDS011;26687;48.254;11.454;2023-08-12T10:40:05;2.50;;;2.30;;
40955;SDS011;26687;48.254;11.454;2023-08-12T10:43:08;2.70;;;2.50;;
40955;SDS011;26687;48.254;11.454;2023-08-12T10:46:09;2.90;;;2.70;;
40955;SDS011;26687;48.254;11.454;2023-08-12T10:49:21;3.17;;;2.80;;
40955;SDS011;26687;48.254;11.454;2023-08-12T10:52:28;3.55;;;2.72;;
40955;SDS011;26687;48.254;11.454;2023-08-12T10:55:28;2.95;;;2.75;;
40955;SDS011;26687;48.254;11.454;2023-08-12T10:58:37;2.80;;;2.60;;
40955;SDS011;26687;48.254;11.454;2023-08-12T11:01:40;2.80;;;2.60;;
40955;SDS011;26687;48.254;11.454;2023-08-12T11:04:41;3.92;;;2.60;;
40955;SDS011;26687;48.254;11.454;2023-08-12T11:07:42;4.25;;;2.40;;
40955;SDS011;26687;48.254;11.454;2023-08-12T11:10:43;2.63;;;2.40;;
40955;SDS011;26687;48.254;11.454;2023-08-12T11:13:53;3.20;;;2.90;;
40955;SDS011;26687;48.254;11.454;2023-08-12T11:16:53;3.75;;;2.45;;
40955;SDS011;26687;48.254;11.454;2023-08-12T11:19:53;2.17;;;2.08;;
40955;SDS011;26687;48.254;11.454;2023-08-12T11:22:53;2.13;;;1.90;;
40955;SDS011;26687;48.254;11.454;2023-08-12T11:25:54;4.47;;;2.30;;
40955;SDS011;26687;48.254;11.454;2023-08-12T11:28:54;2.43;;;2.23;;
40955;SDS011;26687;48.254;11.454;2023-08-12T11:31:54;2.17;;;2.05;;
40955;SDS011;26687;48.254;11.454;2023-08-12T11:34:54;4.50;;;2.53;;
40955;SDS011;26687;48.254;11.454;2023-08-12T11:37:55;3.03;;;2.13;;
40955;SDS011;26687;48.254;11.454;2023-08-12T11:40:56;3.47;;;2.20;;
40955;SDS011;26687;48.254;11.454;2023-08-12T11:43:56;2.10;;;1.90;;
40955;SDS011;26687;48.254;11.454;2023-08-12T11:46:56;3.33;;;2.10;;
40955;SDS011;26687;48.254;11.454;2023-08-12T11:49:57;2.67;;;2.13;;
40955;SDS011;26687;48.254;11.454;2023-08-12T11:52:57;2.50;;;2.27;;
40955;SDS011;26687;48.254;11.454;2023-08-12T11:55:58;3.60;;;2.05;;
40955;SDS011;26687;48.254;11.454;2023-08-12T11:58:59;5.37;;;2.27;;
40955;SDS011;26687;48.254;11.454;2023-08-12T12:02:01;2.40;;;2.20;;
40955;SDS011;26687;48.254;11.454;2023-08-12T12:05:04;2.50;;;2.30;;
40955;SDS011;26687;48.254;11.454;2023-08-12T12:08:05;1.83;;;1.73;;
40955;SDS011;26687;48.254;11.454;2023-08-12T12:11:08;2.42;;;2.22;;
40955;SDS011;26687;48.254;11.454;2023-08-12T12:14:09;2.27;;;2.07;;
40955;SDS011;26687;48.254;11.454;2023-08-12T12:17:09;2.47;;;2.10;;
40955;SDS011;26687;48.254;11.454;2023-08-12T12:20:10;3.83;;;2.10;;
40955;SDS011;26687;48.254;11.454;2023-08-12T12:23:10;2.42;;;2.03;;
40955;SDS011;26687;48.254;11.454;2023-08-12T12:26:10;4.40;;;1.90;;
40955;SDS011;26687;48.254;11.454;2023-08-12T12:29:11;2.53;;;1.67;;
40955;SDS011;26687;48.254;11.454;2023-08-12T12:32:11;3.28;;;1.98;;
40955;SDS011;26687;48.254;11.454;2023-08-12T12:35:12;2.93;;;1.87;;
40955;SDS011;26687;48.254;11.454;2023-08-12T12:38:12;3.17;;;2.10;;
40955;SDS011;26687;48.254;11.454;2023-08-12T12:41:12;3.43;;;2.00;;
40955;SDS011;26687;48.254;11.454;2023-08-12T12:44:13;3.00;;;1.90;;
40955;SDS011;26687;48.254;11.454;2023-08-12T12:47:13;4.05;;;1.55;;
40955;SDS011;26687;48.254;11.454;2023-08-12T12:50:13;2.23;;;1.70;;
40955;SDS011;26687;48.254;11.454;2023-08-12T12:53:13;2.45;;;1.40;;
40955;SDS011;26687;48.254;11.454;2023-08-12T12:56:14;4.35;;;1.90;;
40955;SDS011;26687;48.254;11.454;2023-08-12T12:59:14;3.10;;;1.80;;
40955;SDS011;26687;48.254;11.454;2023-08-12T13:02:14;1.70;;;1.60;;
40955;SDS011;26687;48.254;11.454;2023-08-12T13:05:14;1.80;;;1.65;;
40955;SDS011;26687;48.254;11.454;2023-08-12T13:08:15;3.22;;;1.70;;
40955;SDS011;26687;48.254;11.454;2023-08-12T13:11:15;1.90;;;1.80;;
40955;SDS011;26687;48.254;11.454;2023-08-12T13:14:15;2.70;;;1.88;;
40955;SDS011;26687;48.254;11.454;2023-08-12T13:17:18;2.20;;;1.88;;
40955;SDS011;26687;48.254;11.454;2023-08-12T13:20:19;1.63;;;1.52;;
40955;SDS011;26687;48.254;11.454;2023-08-12T13:23:19;2.00;;;1.70;;
40955;SDS011;26687;48.254;11.454;2023-08-12T13:26:19;2.10;;;1.90;;
40955;SDS011;26687;48.254;11.454;2023-08-12T13:29:19;3.60;;;1.60;;
40955;SDS011;26687;48.254;11.454;2023-08-12T13:32:20;2.22;;;1.63;;
40955;SDS011;26687;48.254;11.454;2023-08-12T13:35:20;2.00;;;1.60;;
40955;SDS011;26687;48.254;11.454;2023-08-12T13:38:20;2.58;;;1.75;;
40955;SDS011;26687;48.254;11.454;2023-08-12T13:41:20;2.47;;;1.70;;
40955;SDS011;26687;48.254;11.454;2023-08-12T13:44:21;1.60;;;1.50;;
40955;SDS011;26687;48.254;11.454;2023-08-12T13:47:21;2.17;;;1.97;;
40955;SDS011;26687;48.254;11.454;2023-08-12T13:50:21;2.35;;;2.03;;
40955;SDS011;26687;48.254;11.454;2023-08-12T13:53:21;2.20;;;2.00;;
40955;SDS011;26687;48.254;11.454;2023-08-12T13:56:23;3.40;;;1.90;;
40955;SDS011;26687;48.254;11.454;2023-08-12T13:59:30;3.30;;;1.98;;
40955;SDS011;26687;48.254;11.454;2023-08-12T14:02:30;2.22;;;2.05;;
40955;SDS011;26687;48.254;11.454;2023-08-12T14:05:30;2.43;;;2.13;;
40955;SDS011;26687;48.254;11.454;2023-08-12T14:08:31;3.63;;;1.98;;
40955;SDS011;26687;48.254;11.454;2023-08-12T14:11:31;3.00;;;2.33;;
40955;SDS011;26687;48.254;11.454;2023-08-12T14:14:31;2.72;;;1.90;;
40955;SDS011;26687;48.254;11.454;2023-08-12T14:17:31;3.78;;;2.00;;
40955;SDS011;26687;48.254;11.454;2023-08-12T14:20:31;2.27;;;2.07;;
40955;SDS011;26687;48.254;11.454;2023-08-12T14:23:32;2.60;;;1.90;;
40955;SDS011;26687;48.254;11.454;2023-08-12T14:26:32;3.10;;;2.40;;
40955;SDS011;26687;48.254;11.454;2023-08-12T14:29:33;3.05;;;2.03;;
40955;SDS011;26687;48.254;11.454;2023-08-12T14:32:33;4.43;;;2.38;;
40955;SDS011;26687;48.254;11.454;2023-08-12T14:35:33;5.00;;;2.10;;
40955;SDS011;26687;48.254;11.454;2023-08-12T14:38:34;2.90;;;2.50;;
40955;SDS011;26687;48.254;11.454;2023-08-12T14:41:34;3.10;;;2.27;;
40955;SDS011;26687;48.254;11.454;2023-08-12T14:44:34;2.38;;;2.10;;
40955;SDS011;26687;48.254;11.454;2023-08-12T14:47:35;2.58;;;2.38;;
40955;SDS011;26687;48.254;11.454;2023-08-12T14:50:36;3.22;;;2.50;;
40955;SDS011;26687;48.254;11.454;2023-08-12T14:53:37;3.55;;;2.50;;
40955;SDS011;26687;48.254;11.454;2023-08-12T14:56:37;5.47;;;2.50;;
40955;SDS011;26687;48.254;11.454;2023-08-12T14:59:37;4.23;;;2.60;;
40955;SDS011;26687;48.254;11.454;2023-08-12T15:02:37;5.22;;;2.58;;
40955;SDS011;26687;48.254;11.454;2023-08-12T15:05:38;2.90;;;2.30;;
40955;SDS011;26687;48.254;11.454;2023-08-12T15:08:38;3.60;;;2.25;;
40955;SDS011;26687;48.254;11.454;2023-08-12T15:11:38;5.00;;;2.47;;
40955;SDS011;26687;48.254;11.454;2023-08-12T15:14:38;3.30;;;2.30;;
40955;SDS011;26687;48.254;11.454;2023-08-12T15:17:38;3.10;;;2.17;;
40955;SDS011;26687;48.254;11.454;2023-08-12T15:20:39;2.67;;;2.33;;
40955;SDS011;26687;48.254;11.454;2023-08-12T15:23:39;4.90;;;2.60;;
40955;SDS011;26687;48.254;11.454;2023-08-12T15:26:39;2.77;;;2.30;;
40955;SDS011;26687;48.254;11.454;2023-08-12T15:29:39;5.43;;;2.37;;
40955;SDS011;26687;48.254;11.454;2023-08-12T15:32:39;3.53;;;2.17;;
40955;SDS011;26687;48.254;11.454;2023-08-12T15:35:40;3.08;;;2.20;;
40955;SDS011;26687;48.254;11.454;2023-08-12T15:38:40;5.33;;;2.83;;
40955;SDS011;26687;48.254;11.454;2023-08-12T15:41:41;3.27;;;2.20;;
40955;SDS011;26687;48.254;11.454;2023-08-12T15:44:42;4.72;;;2.50;;
40955;SDS011;26687;48.254;11.454;2023-08-12T15:47:42;3.83;;;2.15;;
40955;SDS011;26687;48.254;11.454;2023-08-12T15:50:43;4.37;;;2.20;;
40955;SDS011;26687;48.254;11.454;2023-08-12T15:53:43;5.72;;;2.15;;
40955;SDS011;26687;48.254;11.454;2023-08-12T15:56:43;2.37;;;2.17;;
40955;SDS011;26687;48.254;11.454;2023-08-12T15:59:43;2.47;;;2.28;;
40955;SDS011;26687;48.254;11.454;2023-08-12T16:02:44;2.28;;;1.80;;
40955;SDS011;26687;48.254;11.454;2023-08-12T16:05:45;3.50;;;2.35;;
40955;SDS011;26687;48.254;11.454;2023-08-12T16:08:45;3.58;;;1.98;;
40955;SDS011;26687;48.254;11.454;2023-08-12T16:11:45;2.90;;;2.28;;
40955;SDS011;26687;48.254;11.454;2023-08-12T16:14:45;2.30;;;2.10;;
40955;SDS011;26687;48.254;11.454;2023-08-12T16:17:46;3.47;;;2.17;;
40955;SDS011;26687;48.254;11.454;2023-08-12T16:20:46;2.80;;;2.45;;
40955;SDS011;26687;48.254;11.454;2023-08-12T16:23:46;4.07;;;2.10;;
40955;SDS011;26687;48.254;11.454;2023-08-12T16:26:46;4.82;;;2.70;;
40955;SDS011;26687;48.254;11.454;2023-08-12T16:29:46;2.58;;;2.30;;
40955;SDS011;26687;48.254;11.454;2023-08-12T16:32:47;4.15;;;2.38;;
40955;SDS011;26687;48.254;11.454;2023-08-12T16:35:47;4.57;;;2.70;;
40955;SDS011;26687;48.254;11.454;2023-08-12T16:38:49;4.45;;;2.50;;
40955;SDS011;26687;48.254;11.454;2023-08-12T16:41:49;4.65;;;2.28;;
40955;SDS011;26687;48.254;11.454;2023-08-12T16:44:49;2.47;;;2.03;;
40955;SDS011;26687;48.254;11.454;2023-08-12T16:47:50;4.57;;;2.40;;
40955;SDS011;26687;48.254;11.454;2023-08-12T16:50:50;3.35;;;2.67;;
40955;SDS011;26687;48.254;11.454;2023-08-12T16:53:50;4.33;;;2.23;;
40955;SDS011;26687;48.254;11.454;2023-08-12T16:56:50;5.43;;;2.60;;
40955;SDS011;26687;48.254;11.454;2023-08-12T16:59:50;3.47;;;2.60;;
40955;SDS011;26687;48.254;11.454;2023-08-12T17:02:50;4.57;;;2.50;;
40955;SDS011;26687;48.254;11.454;2023-08-12T17:05:51;4.30;;;2.90;;
40955;SDS011;26687;48.254;11.454;2023-08-12T17:08:51;6.10;;;3.00;;
40955;SDS011;26687;48.254;11.454;2023-08-12T17:11:51;7.38;;;4.30;;
40955;SDS011;26687;48.254;11.454;2023-08-12T17:14:51;4.73;;;3.47;;
40955;SDS011;26687;48.254;11.454;2023-08-12T17:17:51;6.82;;;3.40;;
40955;SDS011;26687;48.254;11.454;2023-08-12T17:20:52;8.73;;;3.13;;
40955;SDS011;26687;48.254;11.454;2023-08-12T17:23:52;3.87;;;2.73;;
40955;SDS011;26687;48.254;11.454;2023-08-12T17:26:52;4.10;;;2.80;;
40955;SDS011;26687;48.254;11.454;2023-08-12T17:29:52;2.70;;;2.38;;
40955;SDS011;26687;48.254;11.454;2023-08-12T17:32:52;3.67;;;2.70;;
40955;SDS011;26687;48.254;11.454;2023-08-12T17:35:53;3.63;;;2.43;;
40955;SDS011;26687;48.254;11.454;2023-08-12T17:38:53;5.33;;;2.70;;
40955;SDS011;26687;48.254;11.454;2023-08-12T17:41:53;5.33;;;2.80;;
40955;SDS011;26687;48.254;11.454;2023-08-12T17:44:54;6.07;;;3.10;;
40955;SDS011;26687;48.254;11.454;2023-08-12T17:47:58;4.75;;;2.92;;
40955;SDS011;26687;48.254;11.454;2023-08-12T17:50:58;4.70;;;2.63;;
40955;SDS011;26687;48.254;11.454;2023-08-12T17:53:58;3.13;;;2.83;;